createdAt,value
2023-05-20T00:02:23.208Z,12.32
2023-05-20T00:05:05.520Z,12.53
2023-05-20T00:07:50.833Z,12.52
2023-05-20T00:10:23.521Z,12.32
2023-05-20T00:13:06.725Z,12.56
2023-05-20T00:15:39.486Z,12.35
2023-05-20T00:18:21.589Z,12.61
2023-05-20T00:20:54.738Z,12.36
2023-05-20T00:23:36.709Z,12.59
2023-05-20T00:26:09.332Z,12.31
2023-05-20T00:28:51.333Z,12.49
2023-05-20T00:31:24.299Z,12.24
2023-05-20T00:34:06.955Z,12.45
2023-05-20T00:36:52.058Z,12.42
2023-05-20T00:39:24.852Z,12.21
2023-05-20T00:42:07.241Z,12.40
2023-05-20T00:44:39.824Z,12.22
2023-05-20T00:47:26.417Z,12.46
2023-05-20T00:50:10.651Z,12.46
2023-05-20T00:52:45.465Z,12.21
2023-05-20T00:55:30.934Z,12.42
2023-05-20T00:58:03.777Z,11.97
2023-05-20T01:00:47.682Z,12.40
2023-05-20T01:03:32.108Z,12.50
2023-05-20T01:06:17.618Z,12.40
2023-05-20T01:08:51.137Z,12.20
2023-05-20T01:11:41.758Z,12.38
2023-05-20T01:14:16.643Z,12.13
2023-05-20T01:17:05.046Z,12.35
2023-05-20T01:19:42.432Z,12.08
2023-05-20T01:22:28.643Z,12.32
2023-05-20T01:25:03.162Z,12.08
2023-05-20T01:27:45.766Z,12.28
2023-05-20T01:30:18.728Z,12.05
2023-05-20T01:33:09.682Z,12.25
2023-05-20T01:35:43.874Z,11.81
2023-05-20T01:38:29.738Z,12.20
2023-05-20T01:41:04.688Z,12.05
2023-05-20T01:43:49.382Z,12.33
2023-05-20T01:46:35.537Z,12.42
2023-05-20T01:49:08.172Z,12.15
2023-05-20T01:51:51.738Z,12.34
2023-05-20T01:54:24.317Z,12.11
2023-05-20T01:57:08.139Z,12.35
2023-05-20T01:59:41.579Z,12.10
2023-05-20T02:02:23.659Z,12.36
2023-05-20T02:04:56.502Z,12.06
2023-05-20T02:07:41.068Z,12.32
2023-05-20T02:10:13.923Z,12.07
2023-05-20T02:12:58.752Z,12.28
2023-05-20T02:15:31.472Z,12.07
2023-05-20T02:18:18.313Z,12.32
2023-05-20T02:20:51.521Z,12.08
2023-05-20T02:23:36.634Z,12.30
2023-05-20T02:26:10.079Z,12.10
2023-05-20T02:28:54.229Z,12.32
2023-05-20T02:31:27.373Z,12.12
2023-05-20T02:34:09.624Z,12.33
2023-05-20T02:36:42.499Z,12.13
2023-05-20T02:39:26.338Z,12.39
2023-05-20T02:41:58.879Z,12.19
2023-05-20T02:44:41.486Z,12.39
2023-05-20T02:47:15.842Z,12.16
2023-05-20T02:49:48.273Z,12.22
2023-05-20T02:52:32.415Z,12.50
2023-05-20T02:55:05.431Z,12.31
2023-05-20T02:57:50.246Z,12.57
2023-05-20T03:00:23.824Z,12.37
2023-05-20T03:03:10.440Z,12.66
2023-05-20T03:05:44.573Z,12.42
2023-05-20T03:08:27.166Z,12.67
2023-05-20T03:11:09.449Z,12.69
2023-05-20T03:13:42.295Z,12.51
2023-05-20T03:16:25.560Z,12.74
2023-05-20T03:18:58.950Z,12.59
2023-05-20T03:21:44.950Z,12.84
2023-05-20T03:24:19.373Z,12.61
2023-05-20T03:27:04.253Z,12.88
2023-05-20T03:29:49.800Z,12.90
2023-05-20T03:32:33.067Z,12.81
2023-05-20T03:35:07.798Z,12.54
2023-05-20T03:37:54.120Z,12.75
2023-05-20T03:40:28.755Z,12.18
2023-05-20T03:43:13.884Z,12.68
2023-05-20T03:45:46.743Z,12.49
2023-05-20T03:48:20.414Z,12.59
2023-05-20T03:50:53.301Z,12.64
2023-05-20T03:53:35.661Z,12.92
2023-05-20T03:56:08.282Z,12.78
2023-05-20T03:58:53.117Z,13.15
2023-05-20T04:01:25.873Z,12.98
2023-05-20T04:04:10.318Z,13.30
2023-05-20T04:06:56.469Z,13.36
2023-05-20T04:09:40.041Z,13.47
2023-05-20T04:12:14.006Z,13.25
2023-05-20T04:15:02.783Z,13.50
2023-05-20T04:17:38.550Z,13.32
2023-05-20T04:20:20.898Z,13.63
2023-05-20T04:22:54.280Z,13.44
2023-05-20T04:25:36.959Z,13.75
2023-05-20T04:28:19.359Z,13.77
2023-05-20T04:31:07.624Z,13.84
2023-05-20T04:33:40.962Z,13.70
2023-05-20T04:36:22.953Z,13.98
2023-05-20T04:38:56.445Z,13.87
2023-05-20T04:41:48.128Z,14.25
2023-05-20T04:44:20.387Z,14.13
2023-05-20T04:46:53.085Z,14.38
2023-05-20T04:49:35.597Z,14.51
2023-05-20T04:52:08.453Z,14.35
2023-05-20T04:54:58.196Z,14.67
2023-05-20T04:57:30.729Z,14.69
2023-05-20T05:00:16.175Z,14.94
2023-05-20T05:03:00.276Z,15.09
2023-05-20T05:05:32.986Z,14.93
2023-05-20T05:08:17.525Z,15.25
2023-05-20T05:11:03.160Z,15.42
2023-05-20T05:13:36.472Z,14.92
2023-05-20T05:16:18.591Z,15.51
2023-05-20T05:19:00.819Z,15.67
2023-05-20T05:21:44.500Z,15.79
2023-05-20T05:24:17.248Z,15.71
2023-05-20T05:27:01.737Z,15.99
2023-05-20T05:29:35.221Z,15.80
2023-05-20T05:32:20.278Z,16.12
2023-05-20T05:34:52.907Z,16.00
2023-05-20T05:37:35.074Z,16.25
2023-05-20T05:40:09.908Z,16.06
2023-05-20T05:42:55.363Z,16.49
2023-05-20T05:45:40.686Z,16.72
2023-05-20T05:48:13.203Z,16.68
2023-05-20T05:50:58.102Z,17.12
2023-05-20T05:53:30.901Z,16.96
2023-05-20T05:56:15.377Z,17.36
2023-05-20T05:58:48.528Z,17.14
2023-05-20T06:01:30.881Z,17.36
2023-05-20T06:04:13.876Z,17.36
2023-05-20T06:06:46.567Z,17.17
2023-05-20T06:09:30.117Z,17.58
2023-05-20T06:12:03.181Z,17.28
2023-05-20T06:14:49.907Z,17.60
2023-05-20T06:17:22.896Z,17.27
2023-05-20T06:20:07.739Z,17.50
2023-05-20T06:22:52.792Z,17.47
2023-05-20T06:25:26.884Z,16.43
2023-05-20T06:28:09.940Z,16.99
2023-05-20T06:30:43.065Z,16.76
2023-05-20T06:33:28.830Z,17.11
2023-05-20T06:36:03.523Z,16.86
2023-05-20T06:38:47.575Z,17.21
2023-05-20T06:41:22.732Z,17.12
2023-05-20T06:44:05.652Z,17.56
2023-05-20T06:47:07.986Z,17.74
2023-05-20T06:49:51.215Z,17.72
2023-05-20T06:52:35.896Z,17.46
2023-05-20T06:55:20.334Z,17.37
2023-05-20T06:57:53.322Z,16.94
2023-05-20T07:00:39.506Z,17.39
2023-05-20T07:03:21.745Z,17.45
2023-05-20T07:06:04.034Z,17.58
2023-05-20T07:08:48.502Z,17.79
2023-05-20T07:11:31.361Z,17.63
2023-05-20T07:14:16.586Z,18.00
2023-05-20T07:16:58.840Z,18.14
2023-05-20T07:19:32.372Z,17.96
2023-05-20T07:22:14.401Z,18.33
2023-05-20T07:25:10.452Z,18.49
2023-05-20T07:27:43.449Z,18.23
2023-05-20T07:30:28.503Z,18.48
2023-05-20T07:33:20.231Z,18.46
2023-05-20T07:35:54.804Z,18.03
2023-05-20T07:38:38.555Z,18.25
2023-05-20T07:41:13.507Z,17.79
2023-05-20T07:43:55.641Z,17.77
2023-05-20T07:46:42.231Z,17.80
2023-05-20T07:49:16.051Z,17.67
2023-05-20T07:52:02.739Z,18.08
2023-05-20T07:54:37.241Z,17.97
2023-05-20T07:57:10.130Z,18.16
2023-05-20T07:59:54.044Z,18.66
2023-05-20T08:02:27.357Z,18.47
2023-05-20T08:05:11.464Z,18.82
2023-05-20T08:07:54.351Z,18.87
2023-05-20T08:10:40.257Z,17.79
2023-05-20T08:13:13.121Z,17.79
2023-05-20T08:15:56.751Z,18.45
2023-05-20T08:18:39.564Z,18.85
2023-05-20T08:21:14.417Z,19.09
2023-05-20T08:24:00.065Z,19.71
2023-05-20T08:26:33.094Z,19.75
2023-05-20T08:29:06.410Z,19.90
2023-05-20T08:31:52.381Z,20.23
2023-05-20T08:34:25.505Z,20.02
2023-05-20T08:37:09.270Z,20.34
2023-05-20T08:39:54.408Z,20.41
2023-05-20T08:42:27.801Z,20.15
2023-05-20T08:45:14.620Z,20.52
2023-05-20T08:47:48.211Z,20.23
2023-05-20T08:50:30.674Z,20.57
2023-05-20T08:53:03.514Z,20.13
2023-05-20T08:56:00.910Z,20.38
2023-05-20T08:58:35.075Z,20.04
2023-05-20T09:01:18.181Z,20.20
2023-05-20T09:03:59.567Z,19.73
2023-05-20T09:06:46.013Z,19.83
2023-05-20T09:09:19.022Z,19.31
2023-05-20T09:12:03.723Z,19.49
2023-05-20T09:14:37.009Z,19.18
2023-05-20T09:17:24.777Z,19.54
2023-05-20T09:19:57.706Z,19.40
2023-05-20T09:22:41.192Z,19.77
2023-05-20T09:25:25.467Z,19.84
2023-05-20T09:27:58.450Z,19.57
2023-05-20T09:30:40.833Z,19.83
2023-05-20T09:33:14.063Z,19.58
2023-05-20T09:36:11.864Z,19.96
2023-05-20T09:38:55.742Z,19.98
2023-05-20T09:41:32.371Z,19.62
2023-05-20T09:44:16.562Z,19.95
2023-05-20T09:47:01.207Z,19.44
2023-05-20T09:49:35.155Z,19.39
2023-05-20T09:52:21.605Z,19.93
2023-05-20T09:54:56.557Z,19.20
2023-05-20T09:57:41.015Z,20.10
2023-05-20T10:00:24.685Z,19.84
2023-05-20T10:03:09.186Z,20.35
2023-05-20T10:05:59.805Z,20.28
2023-05-20T10:08:55.148Z,20.77
2023-05-20T10:11:41.676Z,20.82
2023-05-20T10:14:29.234Z,20.55
2023-05-20T10:17:16.746Z,20.95
2023-05-20T10:20:01.757Z,20.90
2023-05-20T10:22:49.279Z,20.99
2023-05-20T10:25:31.520Z,20.94
2023-05-20T10:28:11.694Z,20.67
2023-05-20T10:30:53.733Z,21.06
2023-05-20T10:33:31.300Z,20.48
2023-05-20T10:36:27.236Z,20.49
2023-05-20T10:39:00.958Z,19.76
2023-05-20T10:41:43.371Z,19.86
2023-05-20T10:44:16.251Z,19.30
2023-05-20T10:49:51.312Z,19.32
2023-05-20T10:52:24.958Z,18.94
2023-05-20T10:55:09.564Z,19.16
2023-05-20T10:57:42.545Z,18.79
2023-05-20T11:00:24.742Z,18.99
2023-05-20T11:02:58.971Z,18.64
2023-05-20T11:05:41.753Z,18.96
2023-05-20T11:08:29.213Z,19.02
2023-05-20T11:11:00.504Z,18.73
2023-05-20T11:13:43.297Z,19.06
2023-05-20T11:16:16.229Z,18.83
2023-05-20T11:18:58.568Z,19.19
2023-05-20T11:21:31.564Z,19.01
2023-05-20T11:24:18.873Z,19.28
2023-05-20T11:27:02.636Z,19.25
2023-05-20T11:29:35.385Z,18.92
2023-05-20T11:32:18.950Z,19.13
2023-05-20T11:34:53.694Z,18.80
2023-05-20T11:37:38.804Z,19.08
2023-05-20T11:40:13.364Z,18.65
2023-05-20T11:42:45.096Z,18.54
2023-05-20T11:45:28.726Z,18.75
2023-05-20T11:48:04.237Z,18.23
2023-05-20T11:50:49.796Z,18.49
2023-05-20T11:53:24.753Z,18.14
2023-05-20T11:56:07.204Z,18.43
2023-05-20T11:58:39.889Z,18.27
2023-05-20T12:01:23.090Z,18.80
2023-05-20T12:03:56.488Z,18.91
2023-05-20T12:06:40.938Z,19.51
2023-05-20T12:09:26.061Z,19.65
2023-05-20T12:12:08.946Z,19.68
2023-05-20T12:14:53.076Z,19.73
2023-05-20T12:17:52.110Z,19.63
2023-05-20T12:20:26.320Z,19.20
2023-05-20T12:23:14.822Z,19.24
2023-05-20T12:25:49.017Z,18.70
2023-05-20T12:28:50.985Z,18.83
2023-05-20T12:31:23.851Z,18.41
2023-05-20T12:34:08.310Z,18.58
2023-05-20T12:36:53.124Z,18.49
2023-05-20T12:39:37.282Z,18.40
2023-05-20T12:42:10.364Z,18.02
2023-05-20T12:44:53.905Z,18.24
2023-05-20T12:47:26.629Z,18.03
2023-05-20T12:50:11.599Z,18.38
2023-05-20T12:52:44.148Z,18.28
2023-05-20T12:56:02.426Z,18.71
2023-05-20T12:58:35.530Z,18.56
2023-05-20T13:01:19.368Z,18.97
2023-05-20T13:03:53.779Z,18.87
2023-05-20T13:06:37.587Z,19.29
2023-05-20T13:09:10.615Z,19.27
2023-05-20T13:11:53.308Z,19.66
2023-05-20T13:14:26.306Z,19.67
2023-05-20T13:17:10.615Z,20.16
2023-05-20T13:19:43.080Z,20.08
2023-05-20T13:22:25.265Z,20.57
2023-05-20T13:24:57.800Z,20.45
2023-05-20T13:27:41.440Z,20.76
2023-05-20T13:30:26.011Z,20.68
2023-05-20T13:32:58.862Z,20.29
2023-05-20T13:35:43.938Z,20.55
2023-05-20T13:38:16.834Z,20.20
2023-05-20T13:40:59.711Z,20.47
2023-05-20T13:43:33.521Z,19.97
2023-05-20T13:46:18.571Z,20.08
2023-05-20T13:48:51.710Z,19.47
2023-05-20T13:51:33.845Z,19.60
2023-05-20T13:54:17.839Z,19.46
2023-05-20T13:56:50.828Z,19.04
2023-05-20T13:59:35.266Z,19.30
2023-05-20T14:02:09.119Z,18.96
2023-05-20T14:04:58.328Z,19.10
2023-05-20T14:07:44.146Z,18.91
2023-05-20T14:10:17.188Z,18.46
2023-05-20T14:13:02.326Z,18.64
2023-05-20T14:15:34.834Z,18.26
2023-05-20T14:18:20.063Z,18.47
2023-05-20T14:20:52.700Z,18.23
2023-05-20T14:23:36.206Z,18.49
2023-05-20T14:26:08.755Z,18.05
2023-05-20T14:28:52.479Z,18.24
2023-05-20T14:31:39.414Z,18.17
2023-05-20T14:34:11.571Z,17.88
2023-05-20T14:36:56.105Z,18.17
2023-05-20T14:39:28.862Z,17.72
2023-05-20T14:42:10.963Z,17.88
2023-05-20T14:44:43.581Z,17.69
2023-05-20T14:47:27.251Z,18.01
2023-05-20T14:50:00.607Z,17.80
2023-05-20T14:52:44.840Z,18.09
2023-05-20T14:55:28.336Z,18.19
2023-05-20T14:58:00.906Z,18.10
2023-05-20T15:00:43.633Z,18.56
2023-05-20T15:03:16.651Z,18.67
2023-05-20T15:06:01.076Z,20.72
2023-05-20T15:08:33.740Z,21.37
2023-05-20T15:11:17.668Z,21.79
2023-05-20T15:13:51.612Z,22.15
2023-05-20T15:16:35.150Z,24.02
2023-05-20T15:19:19.121Z,25.76
2023-05-20T15:21:51.995Z,26.37
2023-05-20T15:24:24.078Z,26.55
2023-05-20T15:27:07.979Z,25.24
2023-05-20T15:29:41.021Z,23.42
2023-05-20T15:32:22.985Z,22.97
2023-05-20T15:34:55.929Z,22.02
2023-05-20T15:37:39.997Z,22.00
2023-05-20T15:40:13.052Z,21.10
2023-05-20T15:42:57.350Z,20.90
2023-05-20T15:45:40.848Z,20.24
2023-05-20T15:48:13.952Z,19.39
2023-05-20T15:50:57.637Z,19.32
2023-05-20T15:53:30.464Z,18.52
2023-05-20T15:56:14.480Z,18.44
2023-05-20T15:58:46.944Z,17.93
2023-05-20T16:01:32.252Z,17.91
2023-05-20T16:04:05.330Z,17.42
2023-05-20T16:06:49.347Z,17.51
2023-05-20T16:09:22.508Z,17.10
2023-05-20T16:11:56.367Z,16.99
2023-05-20T16:14:40.890Z,17.19
2023-05-20T16:17:14.511Z,16.48
2023-05-20T16:19:58.701Z,16.90
2023-05-20T16:22:35.013Z,16.65
2023-05-20T16:25:19.860Z,16.84
2023-05-20T16:27:52.739Z,16.52
2023-05-20T16:30:37.171Z,16.72
2023-05-20T16:33:09.809Z,16.44
2023-05-20T16:35:42.263Z,16.39
2023-05-20T16:38:27.426Z,16.57
2023-05-20T16:41:00.185Z,16.25
2023-05-20T16:43:44.423Z,16.45
2023-05-20T16:46:17.209Z,16.13
2023-05-20T16:49:00.845Z,16.26
2023-05-20T16:51:33.496Z,15.87
2023-05-20T16:54:17.045Z,16.15
2023-05-20T16:56:49.736Z,15.82
2023-05-20T16:59:32.811Z,15.92
2023-05-20T17:02:18.094Z,15.85
2023-05-20T17:04:51.127Z,15.24
2023-05-20T17:07:23.668Z,15.35
2023-05-20T17:10:06.037Z,15.61
2023-05-20T17:12:38.850Z,15.35
2023-05-20T17:15:25.689Z,15.50
2023-05-20T17:17:58.272Z,15.22
2023-05-20T17:20:41.901Z,15.11
2023-05-20T17:23:14.961Z,15.11
2023-05-20T17:25:59.080Z,15.28
2023-05-20T17:28:31.945Z,15.01
2023-05-20T17:31:15.533Z,15.18
2023-05-20T17:33:48.680Z,14.80
2023-05-20T17:36:33.115Z,15.03
2023-05-20T17:39:06.364Z,14.71
2023-05-20T17:41:50.249Z,14.89
2023-05-20T17:44:22.848Z,14.38
2023-05-20T17:47:06.569Z,14.65
2023-05-20T17:49:39.231Z,14.19
2023-05-20T17:52:23.247Z,14.34
2023-05-20T17:54:55.743Z,13.90
2023-05-20T17:57:39.382Z,13.98
2023-05-20T18:00:24.776Z,13.79
2023-05-20T18:03:01.097Z,13.33
2023-05-20T18:05:45.249Z,13.47
2023-05-20T18:08:19.264Z,13.06
2023-05-20T18:11:02.935Z,13.26
2023-05-20T18:13:36.195Z,12.97
2023-05-20T18:16:18.403Z,13.24
2023-05-20T18:18:51.582Z,13.02
2023-05-20T18:21:41.890Z,13.34
2023-05-20T18:24:26.133Z,13.38
2023-05-20T18:27:00.887Z,13.18
2023-05-20T18:29:43.830Z,13.42
2023-05-20T18:32:16.727Z,13.23
2023-05-20T18:35:01.478Z,13.45
2023-05-20T18:37:36.423Z,13.18
2023-05-20T18:40:21.046Z,13.38
2023-05-20T18:42:53.678Z,13.10
2023-05-20T18:45:37.420Z,13.35
2023-05-20T18:48:15.800Z,13.09
2023-05-20T18:50:56.547Z,13.30
2023-05-20T18:53:29.578Z,13.06
2023-05-20T18:56:13.711Z,13.26
2023-05-20T18:58:55.811Z,13.05
2023-05-20T19:01:29.527Z,12.55
2023-05-20T19:04:14.871Z,12.52
2023-05-20T19:06:48.337Z,12.08
2023-05-20T19:09:30.768Z,12.24
2023-05-20T19:12:05.175Z,11.96
2023-05-20T19:14:49.471Z,12.20
2023-05-20T19:17:22.308Z,11.76
2023-05-20T19:20:07.525Z,12.22
2023-05-20T19:22:40.195Z,12.04
2023-05-20T19:25:22.784Z,12.29
2023-05-20T19:27:55.693Z,12.07
2023-05-20T19:33:21.659Z,12.11
2023-05-20T19:36:06.850Z,12.41
2023-05-20T19:38:50.466Z,12.41
2023-05-20T19:41:23.246Z,12.19
2023-05-20T19:44:06.722Z,12.47
2023-05-20T19:46:49.222Z,12.50
2023-05-20T19:49:22.573Z,12.26
2023-05-20T19:52:08.438Z,12.57
2023-05-20T19:54:43.118Z,12.37
2023-05-20T19:57:26.920Z,12.61
2023-05-20T19:59:59.438Z,12.41
2023-05-20T20:02:43.918Z,12.62
2023-05-20T20:05:16.621Z,12.47
2023-05-20T20:08:00.609Z,12.69
2023-05-20T20:10:35.289Z,12.50
2023-05-20T20:13:19.845Z,12.72
2023-05-20T20:15:53.054Z,12.52
2023-05-20T20:18:35.065Z,12.73
2023-05-20T20:21:09.328Z,12.53
2023-05-20T20:23:53.454Z,12.74
2023-05-20T20:26:26.192Z,12.46
2023-05-20T20:29:09.267Z,12.65
2023-05-20T20:31:42.605Z,12.37
2023-05-20T20:34:26.542Z,12.58
2023-05-20T20:37:01.945Z,12.32
2023-05-20T20:39:46.080Z,12.47
2023-05-20T20:42:19.230Z,12.11
2023-05-20T20:45:04.624Z,12.22
2023-05-20T20:47:38.242Z,11.90
2023-05-20T20:50:20.262Z,12.11
2023-05-20T20:52:53.161Z,11.81
2023-05-20T20:55:38.166Z,12.02
2023-05-20T20:58:12.390Z,11.83
2023-05-20T21:00:56.938Z,12.09
2023-05-20T21:03:29.614Z,11.68
2023-05-20T21:06:15.911Z,12.15
2023-05-20T21:08:48.475Z,12.05
2023-05-20T21:11:31.937Z,12.37
2023-05-20T21:14:04.675Z,12.16
2023-05-20T21:16:48.215Z,12.39
2023-05-20T21:19:20.997Z,12.08
2023-05-20T21:22:05.940Z,12.14
2023-05-20T21:24:38.551Z,11.77
2023-05-20T21:27:20.652Z,11.95
2023-05-20T21:29:53.342Z,11.62
2023-05-20T21:32:37.570Z,11.82
2023-05-20T21:35:10.855Z,11.55
2023-05-20T21:37:54.437Z,11.76
2023-05-20T21:40:27.057Z,11.47
2023-05-20T21:43:09.447Z,11.64
2023-05-20T21:45:52.017Z,11.58
2023-05-20T21:48:36.702Z,11.55
2023-05-20T21:51:09.480Z,11.34
2023-05-20T21:53:53.195Z,11.53
2023-05-20T21:56:26.582Z,11.31
2023-05-20T21:59:11.547Z,11.51
2023-05-20T22:01:44.249Z,11.29
2023-05-20T22:04:28.041Z,11.46
2023-05-20T22:07:00.856Z,11.24
2023-05-20T22:09:45.338Z,11.43
2023-05-20T22:12:19.597Z,11.23
2023-05-20T22:15:03.150Z,11.42
2023-05-20T22:17:38.187Z,11.18
2023-05-20T22:20:22.960Z,11.40
2023-05-20T22:22:55.506Z,11.21
2023-05-20T22:25:38.936Z,11.40
2023-05-20T22:28:11.664Z,11.20
2023-05-20T22:30:53.783Z,11.41
2023-05-20T22:33:37.133Z,11.41
2023-05-20T22:36:10.412Z,11.22
2023-05-20T22:38:53.819Z,11.44
2023-05-20T22:41:41.760Z,11.48
2023-05-20T22:44:25.243Z,11.50
2023-05-20T22:46:57.904Z,11.31
2023-05-20T22:49:42.386Z,11.52
2023-05-20T22:52:15.154Z,11.33
2023-05-20T22:54:59.848Z,11.55
2023-05-20T22:57:43.857Z,11.52
2023-05-20T23:00:18.228Z,11.31
2023-05-20T23:03:03.425Z,11.51
2023-05-20T23:05:36.305Z,11.28
2023-05-20T23:08:20.909Z,11.47
2023-05-20T23:10:53.853Z,11.28
2023-05-20T23:13:36.268Z,11.51
2023-05-20T23:16:09.624Z,11.28
2023-05-20T23:18:56.560Z,11.47
2023-05-20T23:21:29.177Z,11.26
2023-05-20T23:24:01.960Z,11.24
2023-05-20T23:26:46.595Z,11.41
2023-05-20T23:29:28.823Z,11.41
2023-05-20T23:32:01.644Z,11.22
2023-05-20T23:34:43.750Z,11.44
2023-05-20T23:37:16.526Z,11.22
2023-05-20T23:40:00.495Z,11.41
2023-05-20T23:42:33.693Z,11.20
2023-05-20T23:45:17.218Z,11.39
2023-05-20T23:47:49.972Z,11.18
2023-05-20T23:50:32.953Z,11.33
2023-05-20T23:53:05.635Z,11.16
2023-05-20T23:55:49.690Z,11.36
2023-05-20T23:58:31.732Z,11.36
